createdAt,value
2018-03-16T00:01:13.366Z,-0.50
2018-03-16T00:03:40.909Z,-0.30
2018-03-16T00:06:08.439Z,-0.50
2018-03-16T00:08:36.005Z,-0.30
2018-03-16T00:11:03.556Z,-0.50
2018-03-16T00:13:31.862Z,-0.40
2018-03-16T00:15:59.433Z,-0.30
2018-03-16T00:18:26.980Z,-0.30
2018-03-16T00:20:54.658Z,-0.30
2018-03-16T00:23:22.221Z,-0.10
2018-03-16T00:25:49.766Z,-0.40
2018-03-16T00:28:17.307Z,-0.40
2018-03-16T00:30:45.653Z,-0.30
2018-03-16T00:33:13.203Z,-0.40
2018-03-16T00:35:40.743Z,-0.30
2018-03-16T00:38:08.292Z,-0.30
2018-03-16T00:40:35.850Z,-0.20
2018-03-16T00:43:03.374Z,-0.30
2018-03-16T00:45:31.064Z,-0.20
2018-03-16T00:47:58.599Z,-0.20
2018-03-16T00:50:26.147Z,-0.40
2018-03-16T00:52:53.705Z,-0.30
2018-03-16T00:55:22.006Z,-0.30
2018-03-16T00:57:49.915Z,-0.50
2018-03-16T01:00:17.488Z,-0.40
2018-03-16T01:02:45.030Z,-0.30
2018-03-16T01:05:12.558Z,-0.20
2018-03-16T01:07:40.094Z,-0.10
2018-03-16T01:10:07.621Z,-0.50
2018-03-16T01:12:35.180Z,-0.50
2018-03-16T01:15:02.719Z,-0.50
2018-03-16T01:17:30.261Z,-0.50
2018-03-16T01:19:57.798Z,-0.50
2018-03-16T01:22:25.343Z,-0.80
2018-03-16T01:24:53.664Z,-0.80
2018-03-16T01:27:21.200Z,-1.00
2018-03-16T01:29:49.486Z,-0.90
2018-03-16T01:32:17.088Z,-1.20
2018-03-16T01:34:44.631Z,-1.10
2018-03-16T01:37:12.162Z,-1.10
2018-03-16T01:39:39.761Z,-1.10
2018-03-16T01:42:07.301Z,-1.00
2018-03-16T01:44:34.834Z,-1.20
2018-03-16T01:47:02.409Z,-1.00
2018-03-16T01:49:29.930Z,-1.00
2018-03-16T01:51:58.236Z,-1.30
2018-03-16T01:54:25.793Z,-1.40
2018-03-16T01:56:53.322Z,-1.40
2018-03-16T01:59:20.848Z,-1.30
2018-03-16T02:01:48.398Z,-1.50
2018-03-16T02:04:15.926Z,-1.40
2018-03-16T02:06:43.461Z,-1.60
2018-03-16T02:09:11.027Z,-1.50
2018-03-16T02:11:39.321Z,-1.50
2018-03-16T02:14:06.850Z,-1.60
2018-03-16T02:16:34.391Z,-1.70
2018-03-16T02:19:01.931Z,-1.70
2018-03-16T02:21:29.499Z,-1.70
2018-03-16T02:23:57.022Z,-1.80
2018-03-16T02:26:24.550Z,-1.90
2018-03-16T02:28:52.845Z,-1.90
2018-03-16T02:31:21.146Z,-1.90
2018-03-16T02:33:48.702Z,-2.20
2018-03-16T02:36:16.227Z,-1.70
2018-03-16T02:38:43.767Z,-1.80
2018-03-16T02:41:11.604Z,-1.80
2018-03-16T02:43:39.139Z,-1.90
2018-03-16T02:46:06.680Z,-1.80
2018-03-16T02:48:34.247Z,-1.80
2018-03-16T02:51:01.787Z,-2.00
2018-03-16T02:53:29.327Z,-1.90
2018-03-16T02:55:57.278Z,-2.00
2018-03-16T02:58:24.802Z,-1.80
2018-03-16T03:00:52.343Z,-1.80
2018-03-16T03:03:19.916Z,-2.00
2018-03-16T03:05:47.446Z,-2.10
2018-03-16T03:08:14.992Z,-2.30
2018-03-16T03:10:42.546Z,-2.20
2018-03-16T03:13:10.090Z,-2.30
2018-03-16T03:15:37.633Z,-2.50
2018-03-16T03:18:05.328Z,-2.50
2018-03-16T03:20:32.864Z,-2.40
2018-03-16T03:23:00.420Z,-2.50
2018-03-16T03:25:27.950Z,-2.40
2018-03-16T03:27:55.476Z,-2.60
2018-03-16T03:30:23.211Z,-2.50
2018-03-16T03:32:50.741Z,-2.70
2018-03-16T03:35:18.285Z,-2.60
2018-03-16T03:37:45.817Z,-2.50
2018-03-16T03:40:13.339Z,-2.50
2018-03-16T03:42:40.879Z,-2.60
2018-03-16T03:45:08.465Z,-2.50
2018-03-16T03:47:36.004Z,-2.60
2018-03-16T03:50:03.557Z,-2.60
2018-03-16T03:52:31.966Z,-2.70
2018-03-16T03:54:59.507Z,-2.60
2018-03-16T03:57:27.038Z,-2.40
2018-03-16T03:59:54.594Z,-2.50
2018-03-16T04:02:22.895Z,-2.70
2018-03-16T04:04:50.438Z,-2.70
2018-03-16T04:07:18.733Z,-2.60
2018-03-16T04:09:46.275Z,-2.70
2018-03-16T04:12:14.582Z,-2.30
2018-03-16T04:14:42.120Z,-2.40
2018-03-16T04:17:09.673Z,-2.40
2018-03-16T04:19:37.215Z,-2.10
2018-03-16T04:22:04.754Z,-2.10
2018-03-16T04:24:32.306Z,-2.30
2018-03-16T04:26:59.839Z,-2.10
2018-03-16T04:29:27.717Z,-1.90
2018-03-16T04:31:55.245Z,-2.00
2018-03-16T04:34:22.785Z,-1.90
2018-03-16T04:36:50.331Z,-2.00
2018-03-16T04:39:17.866Z,-2.10
2018-03-16T04:41:45.425Z,-2.00
2018-03-16T04:44:12.960Z,-1.80
2018-03-16T04:46:40.488Z,-1.80
2018-03-16T04:49:08.048Z,-1.90
2018-03-16T04:51:36.345Z,-1.80
2018-03-16T04:54:03.866Z,-1.70
2018-03-16T04:56:31.431Z,-2.00
2018-03-16T04:58:58.971Z,-1.70
2018-03-16T05:01:26.512Z,-2.00
2018-03-16T05:03:54.101Z,-1.90
2018-03-16T05:06:22.415Z,-1.60
2018-03-16T05:08:49.942Z,-1.90
2018-03-16T05:11:18.262Z,-1.80
2018-03-16T05:13:45.796Z,-1.60
2018-03-16T05:16:13.326Z,-1.60
2018-03-16T05:18:40.906Z,-1.90
2018-03-16T05:21:09.211Z,-1.40
2018-03-16T05:23:36.742Z,-1.50
2018-03-16T05:26:05.086Z,-1.40
2018-03-16T05:28:32.621Z,-1.70
2018-03-16T05:31:00.149Z,-1.70
2018-03-16T05:33:27.719Z,-1.70
2018-03-16T05:35:55.270Z,-1.40
2018-03-16T05:38:23.581Z,-1.10
2018-03-16T05:40:51.158Z,-1.20
2018-03-16T05:43:18.708Z,-1.30
2018-03-16T05:45:46.256Z,-1.20
2018-03-16T05:48:13.828Z,-1.20
2018-03-16T05:50:41.373Z,-1.10
2018-03-16T05:53:08.918Z,-1.10
2018-03-16T05:55:36.499Z,-0.90
2018-03-16T05:58:04.030Z,-1.20
2018-03-16T06:00:31.568Z,-0.90
2018-03-16T06:02:59.140Z,-1.00
2018-03-16T06:05:27.449Z,-0.80
2018-03-16T06:07:54.986Z,-1.00
2018-03-16T06:10:22.537Z,-0.80
2018-03-16T06:12:50.095Z,-0.60
2018-03-16T06:15:17.639Z,-0.70
2018-03-16T06:17:45.366Z,-0.50
2018-03-16T06:20:12.901Z,-0.40
2018-03-16T06:22:40.450Z,-0.40
2018-03-16T06:25:07.986Z,-0.40
2018-03-16T06:27:35.537Z,-0.30
2018-03-16T06:30:03.099Z,-0.30
2018-03-16T06:32:30.642Z,-0.20
2018-03-16T06:34:58.202Z,-0.40
2018-03-16T06:37:25.743Z,-0.10
2018-03-16T06:39:53.285Z,-0.30
2018-03-16T06:42:21.006Z,-0.20
2018-03-16T06:44:48.679Z,-0.20
2018-03-16T06:47:16.171Z,-0.20
2018-03-16T06:49:43.710Z,0.10
2018-03-16T06:52:11.228Z,0.10
2018-03-16T06:54:39.088Z,0.10
2018-03-16T06:57:06.598Z,0.20
2018-03-16T06:59:34.123Z,0.20
2018-03-16T07:02:02.677Z,0.50
2018-03-16T07:04:30.214Z,0.40
2018-03-16T07:06:57.755Z,0.50
2018-03-16T07:09:25.414Z,0.80
2018-03-16T07:11:52.942Z,0.60
2018-03-16T07:14:20.479Z,0.80
2018-03-16T07:16:48.034Z,0.90
2018-03-16T07:19:15.574Z,1.00
2018-03-16T07:21:43.095Z,0.90
2018-03-16T07:24:10.688Z,0.80
2018-03-16T07:26:38.220Z,0.80
2018-03-16T07:29:06.506Z,1.00
2018-03-16T07:31:34.072Z,0.90
2018-03-16T07:34:01.590Z,0.80
2018-03-16T07:36:29.121Z,0.80
2018-03-16T07:38:56.684Z,1.00
2018-03-16T07:41:24.202Z,1.20
2018-03-16T07:43:51.737Z,1.30
2018-03-16T07:46:19.278Z,1.10
2018-03-16T07:48:46.805Z,1.10
2018-03-16T07:51:14.334Z,1.20
2018-03-16T07:53:41.857Z,1.20
2018-03-16T07:56:09.379Z,1.40
2018-03-16T07:58:36.906Z,1.30
2018-03-16T08:01:04.503Z,1.60
2018-03-16T08:03:32.750Z,1.50
2018-03-16T08:06:00.275Z,1.40
2018-03-16T08:08:27.793Z,1.50
2018-03-16T08:10:55.312Z,1.60
2018-03-16T08:13:22.856Z,1.40
2018-03-16T08:15:50.384Z,1.60
2018-03-16T08:18:17.912Z,1.70
2018-03-16T08:20:45.439Z,1.60
2018-03-16T08:23:12.967Z,1.60
2018-03-16T08:25:40.523Z,1.60
2018-03-16T08:28:08.054Z,1.60
2018-03-16T08:30:35.588Z,1.60
2018-03-16T08:33:03.114Z,1.60
2018-03-16T08:35:30.639Z,1.60
2018-03-16T08:37:58.199Z,1.50
2018-03-16T08:40:25.732Z,1.80
2018-03-16T08:42:53.272Z,2.00
2018-03-16T08:45:20.831Z,2.10
2018-03-16T08:47:49.133Z,1.90
2018-03-16T08:50:16.691Z,1.90
2018-03-16T08:52:44.223Z,2.00
2018-03-16T08:55:12.511Z,1.90
2018-03-16T08:57:40.837Z,2.00
2018-03-16T09:00:08.353Z,2.20
2018-03-16T09:02:36.637Z,2.20
2018-03-16T09:05:04.225Z,2.30
2018-03-16T09:07:31.746Z,2.10
2018-03-16T09:09:59.269Z,2.40
2018-03-16T09:12:26.838Z,2.60
2018-03-16T09:14:54.355Z,2.30
2018-03-16T09:17:21.877Z,2.40
2018-03-16T09:19:49.422Z,2.50
2018-03-16T09:22:16.989Z,2.40
2018-03-16T09:24:45.277Z,2.30
2018-03-16T09:27:12.834Z,1.90
2018-03-16T09:29:41.136Z,1.90
2018-03-16T09:32:08.799Z,1.90
2018-03-16T09:34:36.321Z,2.10
2018-03-16T09:37:03.852Z,1.60
2018-03-16T09:39:31.457Z,1.50
2018-03-16T09:41:58.959Z,1.70
2018-03-16T09:44:26.487Z,1.70
2018-03-16T09:46:54.019Z,1.70
2018-03-16T09:49:22.318Z,2.10
2018-03-16T09:51:50.739Z,1.80
2018-03-16T09:54:18.272Z,2.20
2018-03-16T09:56:45.804Z,2.40
2018-03-16T09:59:13.340Z,2.30
2018-03-16T10:01:40.867Z,2.50
2018-03-16T10:04:08.419Z,2.60
2018-03-16T10:06:35.929Z,2.60
2018-03-16T10:09:04.282Z,2.60
2018-03-16T10:11:31.834Z,2.60
2018-03-16T10:13:59.362Z,3.10
2018-03-16T10:16:26.892Z,3.00
2018-03-16T10:18:55.322Z,2.90
2018-03-16T10:21:22.960Z,2.80
2018-03-16T10:23:50.516Z,2.90
2018-03-16T10:26:18.211Z,2.80
2018-03-16T10:28:45.751Z,2.70
2018-03-16T10:31:13.279Z,2.30
2018-03-16T10:33:40.806Z,2.70
2018-03-16T10:36:08.353Z,2.80
2018-03-16T10:38:35.888Z,2.80
2018-03-16T10:41:03.429Z,2.80
2018-03-16T10:43:30.987Z,2.70
2018-03-16T10:45:58.517Z,2.80
2018-03-16T10:48:26.047Z,2.70
2018-03-16T10:50:53.617Z,2.40
2018-03-16T10:53:21.165Z,2.50
2018-03-16T10:55:48.705Z,2.70
2018-03-16T10:58:16.235Z,2.70
2018-03-16T11:00:49.505Z,2.80
2018-03-16T11:03:17.866Z,2.80
2018-03-16T11:05:51.123Z,2.40
2018-03-16T11:08:24.281Z,2.80
2018-03-16T11:10:51.833Z,2.90
2018-03-16T11:13:19.390Z,3.00
2018-03-16T11:15:47.709Z,3.30
2018-03-16T11:18:15.248Z,3.30
2018-03-16T11:20:42.784Z,3.20
2018-03-16T11:23:10.350Z,3.10
2018-03-16T11:25:38.647Z,3.00
2018-03-16T11:28:06.184Z,3.00
2018-03-16T11:30:34.524Z,2.90
2018-03-16T11:33:02.042Z,2.60
2018-03-16T11:35:29.562Z,3.00
2018-03-16T11:37:57.507Z,3.00
2018-03-16T11:40:25.056Z,2.90
2018-03-16T11:42:52.583Z,2.80
2018-03-16T11:45:20.162Z,3.00
2018-03-16T11:47:47.692Z,2.60
2018-03-16T11:50:15.978Z,2.20
2018-03-16T11:52:43.506Z,2.10
2018-03-16T11:55:11.032Z,2.20
2018-03-16T11:57:38.592Z,2.20
2018-03-16T12:00:06.119Z,2.10
2018-03-16T12:02:33.648Z,2.20
2018-03-16T12:05:01.190Z,2.60
2018-03-16T12:07:28.717Z,2.70
2018-03-16T12:09:56.247Z,3.00
2018-03-16T12:12:23.804Z,3.10
2018-03-16T12:14:52.107Z,3.30
2018-03-16T12:17:19.636Z,3.30
2018-03-16T12:19:47.954Z,3.50
2018-03-16T12:22:15.475Z,3.50
2018-03-16T12:24:43.761Z,3.70
2018-03-16T12:27:11.286Z,3.70
2018-03-16T12:29:38.812Z,3.50
2018-03-16T12:32:06.348Z,3.40
2018-03-16T12:34:33.919Z,3.20
2018-03-16T12:37:01.454Z,3.10
2018-03-16T12:39:29.771Z,2.60
2018-03-16T12:41:57.504Z,2.60
2018-03-16T12:44:25.035Z,2.40
2018-03-16T12:46:52.570Z,2.50
2018-03-16T12:49:20.187Z,2.80
2018-03-16T12:51:47.710Z,3.10
2018-03-16T12:54:15.243Z,2.90
2018-03-16T12:56:42.761Z,2.90
2018-03-16T12:59:10.308Z,2.70
2018-03-16T13:01:37.839Z,2.70
2018-03-16T13:04:05.366Z,2.50
2018-03-16T13:06:32.920Z,2.50
2018-03-16T13:09:00.454Z,2.70
2018-03-16T13:11:27.987Z,2.30
2018-03-16T13:13:55.594Z,2.20
2018-03-16T13:16:23.112Z,2.30
2018-03-16T13:18:50.641Z,2.50
2018-03-16T13:21:18.200Z,2.70
2018-03-16T13:23:45.775Z,2.70
2018-03-16T13:26:13.295Z,2.90
2018-03-16T13:28:40.813Z,2.60
2018-03-16T13:31:09.111Z,2.00
2018-03-16T13:33:36.638Z,1.80
2018-03-16T13:36:04.366Z,1.60
2018-03-16T13:38:31.892Z,1.40
2018-03-16T13:40:59.589Z,1.30
2018-03-16T13:43:27.114Z,1.20
2018-03-16T13:45:54.643Z,1.10
2018-03-16T13:48:22.206Z,1.60
2018-03-16T13:50:49.726Z,1.70
2018-03-16T13:53:17.246Z,1.60
2018-03-16T13:55:44.793Z,1.60
2018-03-16T13:58:12.332Z,1.80
2018-03-16T14:00:39.852Z,1.80
2018-03-16T14:03:07.402Z,1.90
2018-03-16T14:05:34.963Z,1.70
2018-03-16T14:08:02.490Z,1.50
2018-03-16T14:10:30.019Z,1.50
2018-03-16T14:12:57.571Z,1.50
2018-03-16T14:15:25.123Z,0.90
2018-03-16T14:17:52.634Z,1.00
2018-03-16T14:20:20.175Z,0.60
2018-03-16T14:22:48.504Z,0.80
2018-03-16T14:25:16.036Z,0.90
2018-03-16T14:27:43.568Z,1.10
2018-03-16T14:30:11.146Z,0.90
2018-03-16T14:32:38.687Z,0.80
2018-03-16T14:35:06.984Z,0.90
2018-03-16T14:37:34.842Z,0.90
2018-03-16T14:40:03.138Z,0.50
2018-03-16T14:42:30.668Z,0.60
2018-03-16T14:44:58.966Z,0.60
2018-03-16T14:47:26.525Z,0.50
2018-03-16T14:49:54.063Z,0.60
2018-03-16T14:52:21.595Z,0.70
2018-03-16T14:54:49.155Z,0.80
2018-03-16T14:57:16.682Z,0.80
2018-03-16T14:59:44.229Z,0.70
2018-03-16T15:02:11.790Z,0.60
2018-03-16T15:04:39.339Z,0.20
2018-03-16T15:07:06.951Z,0.20
2018-03-16T15:09:34.492Z,0.20
2018-03-16T15:12:02.028Z,0.20
2018-03-16T15:14:29.601Z,-0.30
2018-03-16T15:16:57.122Z,0.10
2018-03-16T15:19:24.650Z,0.10
2018-03-16T15:21:52.206Z,-0.10
2018-03-16T15:24:19.743Z,-0.20
2018-03-16T15:26:47.269Z,-0.40
2018-03-16T15:29:14.835Z,-0.30
2018-03-16T15:31:42.369Z,-0.60
2018-03-16T15:34:09.897Z,-0.40
2018-03-16T15:36:37.590Z,-0.50
2018-03-16T15:39:05.866Z,-0.40
2018-03-16T15:41:34.170Z,-0.40
2018-03-16T15:44:01.725Z,-0.50
2018-03-16T15:46:30.032Z,-0.60
2018-03-16T15:48:57.566Z,-0.80
2018-03-16T15:51:25.254Z,-0.70
2018-03-16T15:53:52.790Z,-0.90
2018-03-16T15:56:20.319Z,-1.10
2018-03-16T15:58:48.254Z,-1.20
2018-03-16T16:01:15.807Z,-1.10
2018-03-16T16:03:43.345Z,-1.00
2018-03-16T16:06:10.887Z,-1.40
2018-03-16T16:08:38.427Z,-1.20
2018-03-16T16:11:06.763Z,-1.20
2018-03-16T16:13:34.304Z,-1.30
2018-03-16T16:16:01.856Z,-1.40
2018-03-16T16:18:29.437Z,-1.50
2018-03-16T16:20:56.976Z,-1.30
2018-03-16T16:23:24.544Z,-1.50
2018-03-16T16:25:52.124Z,-1.50
2018-03-16T16:28:19.668Z,-1.70
2018-03-16T16:30:47.216Z,-1.80
2018-03-16T16:33:14.804Z,-1.70
2018-03-16T16:35:42.358Z,-1.90
2018-03-16T16:38:09.891Z,-2.10
2018-03-16T16:40:37.440Z,-2.30
2018-03-16T16:43:04.993Z,-2.10
2018-03-16T16:45:33.338Z,-2.40
2018-03-16T16:48:00.867Z,-2.30
2018-03-16T16:50:28.412Z,-2.40
2018-03-16T16:52:56.008Z,-2.40
2018-03-16T16:55:23.542Z,-2.70
2018-03-16T16:57:51.084Z,-2.70
2018-03-16T17:00:18.638Z,-2.60
2018-03-16T17:02:46.171Z,-2.80
2018-03-16T17:05:14.523Z,-2.70
2018-03-16T17:07:42.140Z,-2.90
2018-03-16T17:10:09.727Z,-2.90
2018-03-16T17:12:37.272Z,-2.90
2018-03-16T17:15:04.848Z,-2.70
2018-03-16T17:17:32.371Z,-3.00
2018-03-16T17:19:59.913Z,-3.00
2018-03-16T17:22:28.238Z,-3.20
2018-03-16T17:24:55.787Z,-3.10
2018-03-16T17:27:23.327Z,-2.90
2018-03-16T17:29:50.908Z,-3.10
2018-03-16T17:32:24.175Z,-3.20
2018-03-16T17:34:46.026Z,-3.40
2018-03-16T17:37:13.593Z,-3.50
2018-03-16T17:39:41.127Z,-3.30
2018-03-16T17:42:08.664Z,-3.30
2018-03-16T17:44:36.226Z,-3.50
2018-03-16T17:47:03.758Z,-3.50
2018-03-16T17:49:31.321Z,-3.30
2018-03-16T17:51:59.124Z,-3.50
2018-03-16T17:54:26.660Z,-3.40
2018-03-16T17:56:54.200Z,-3.40
2018-03-16T17:59:21.743Z,-3.40
2018-03-16T18:01:49.307Z,-3.50
2018-03-16T18:04:16.869Z,-3.40
2018-03-16T18:06:44.453Z,-3.40
2018-03-16T18:09:12.817Z,-3.40
2018-03-16T18:11:41.122Z,-3.30
2018-03-16T18:14:09.442Z,-3.40
2018-03-16T18:16:37.021Z,-3.30
2018-03-16T18:19:04.561Z,-3.50
2018-03-16T18:21:32.136Z,-3.60
2018-03-16T18:23:59.914Z,-3.60
2018-03-16T18:26:27.465Z,-3.60
2018-03-16T18:28:55.028Z,-3.60
2018-03-16T18:31:22.619Z,-3.60
2018-03-16T18:33:50.919Z,-3.80
2018-03-16T18:36:18.467Z,-3.80
2018-03-16T18:38:46.808Z,-3.90
2018-03-16T18:41:14.378Z,-3.70
2018-03-16T18:43:42.835Z,-4.00
2018-03-16T18:46:10.400Z,-4.10
2018-03-16T18:48:38.131Z,-3.70
2018-03-16T18:51:05.926Z,-3.80
2018-03-16T18:53:33.480Z,-4.00
2018-03-16T18:56:01.013Z,-3.90
2018-03-16T18:58:28.570Z,-3.90
2018-03-16T19:00:56.102Z,-4.10
2018-03-16T19:03:24.403Z,-3.90
2018-03-16T19:05:52.045Z,-3.80
2018-03-16T19:08:19.579Z,-3.90
2018-03-16T19:10:47.121Z,-3.80
2018-03-16T19:13:14.716Z,-3.90
2018-03-16T19:15:42.275Z,-4.10
2018-03-16T19:18:09.807Z,-4.10
2018-03-16T19:20:37.568Z,-4.10
2018-03-16T19:23:05.104Z,-4.20
2018-03-16T19:25:32.638Z,-3.90
2018-03-16T19:28:00.184Z,-4.20
2018-03-16T19:30:27.728Z,-4.20
2018-03-16T19:32:55.283Z,-4.20
2018-03-16T19:35:23.590Z,-4.10
2018-03-16T19:37:51.910Z,-4.30
2018-03-16T19:40:19.468Z,-4.20
2018-03-16T19:42:47.113Z,-4.30
2018-03-16T19:45:14.663Z,-4.20
2018-03-16T19:47:42.246Z,-4.30
2018-03-16T19:50:09.794Z,-4.20
2018-03-16T19:52:37.336Z,-4.30
2018-03-16T19:55:04.914Z,-4.40
2018-03-16T19:57:32.468Z,-4.40
2018-03-16T20:00:00.143Z,-4.30
2018-03-16T20:02:27.720Z,-4.50
2018-03-16T20:04:55.251Z,-4.40
2018-03-16T20:07:22.806Z,-4.30
2018-03-16T20:09:50.390Z,-4.30
2018-03-16T20:12:17.995Z,-4.30
2018-03-16T20:14:46.551Z,-4.40
2018-03-16T20:17:14.383Z,-4.40
2018-03-16T20:19:41.920Z,-4.50
2018-03-16T20:22:09.484Z,-4.60
2018-03-16T20:24:37.059Z,-4.50
2018-03-16T20:27:04.879Z,-4.30
2018-03-16T20:29:32.444Z,-4.60
2018-03-16T20:32:00.015Z,-4.50
2018-03-16T20:34:27.570Z,-4.70
2018-03-16T20:36:56.822Z,-4.50
2018-03-16T20:39:24.360Z,-4.60
2018-03-16T20:41:51.907Z,-4.80
2018-03-16T20:44:19.492Z,-4.50
2018-03-16T20:46:47.033Z,-4.40
2018-03-16T20:49:14.586Z,-4.70
2018-03-16T20:51:42.148Z,-4.60
2018-03-16T20:54:09.684Z,-4.50
2018-03-16T20:56:37.228Z,-4.70
2018-03-16T20:59:04.808Z,-4.60
2018-03-16T21:01:33.107Z,-4.70
2018-03-16T21:04:00.647Z,-4.60
2018-03-16T21:06:28.224Z,-4.50
2018-03-16T21:08:55.775Z,-4.60
2018-03-16T21:11:23.320Z,-4.60
2018-03-16T21:13:51.650Z,-4.80
2018-03-16T21:16:19.178Z,-4.80
2018-03-16T21:18:46.715Z,-4.60
2018-03-16T21:21:14.291Z,-4.80
2018-03-16T21:23:41.846Z,-4.70
2018-03-16T21:26:09.398Z,-4.80
2018-03-16T21:28:36.946Z,-4.80
2018-03-16T21:31:04.522Z,-4.90
2018-03-16T21:33:32.047Z,-5.10
2018-03-16T21:35:59.589Z,-4.90
2018-03-16T21:38:27.178Z,-4.90
2018-03-16T21:40:54.751Z,-5.10
2018-03-16T21:43:22.297Z,-4.90
2018-03-16T21:45:49.983Z,-4.90
2018-03-16T21:48:17.525Z,-5.30
2018-03-16T21:50:45.063Z,-5.00
2018-03-16T21:53:12.638Z,-5.00
2018-03-16T21:55:40.167Z,-5.00
2018-03-16T21:58:07.707Z,-5.20
2018-03-16T22:00:35.285Z,-5.00
2018-03-16T22:03:02.844Z,-5.00
2018-03-16T22:05:30.366Z,-5.30
2018-03-16T22:07:57.939Z,-5.30
2018-03-16T22:10:25.480Z,-5.30
2018-03-16T22:12:53.021Z,-5.10
2018-03-16T22:15:20.583Z,-5.10
2018-03-16T22:17:48.886Z,-5.30
2018-03-16T22:20:16.428Z,-5.30
2018-03-16T22:22:44.743Z,-5.40
2018-03-16T22:25:12.652Z,-5.20
2018-03-16T22:27:40.244Z,-5.40
2018-03-16T22:30:07.774Z,-5.20
2018-03-16T22:32:35.312Z,-5.50
2018-03-16T22:35:02.875Z,-5.20
2018-03-16T22:37:31.918Z,-5.40
2018-03-16T22:39:59.455Z,-5.30
2018-03-16T22:42:27.798Z,-5.50
2018-03-16T22:44:55.322Z,-5.40
2018-03-16T22:47:22.841Z,-5.40
2018-03-16T22:49:50.415Z,-5.30
2018-03-16T22:52:17.974Z,-5.50
2018-03-16T22:54:46.318Z,-5.50
2018-03-16T22:57:13.905Z,-5.50
2018-03-16T22:59:41.440Z,-5.40
2018-03-16T23:02:08.984Z,-5.30
2018-03-16T23:04:36.559Z,-5.40
2018-03-16T23:07:04.098Z,-5.50
2018-03-16T23:09:31.626Z,-5.30
2018-03-16T23:11:59.166Z,-5.30
2018-03-16T23:14:27.499Z,-5.50
2018-03-16T23:16:55.036Z,-5.50
2018-03-16T23:19:22.566Z,-5.40
2018-03-16T23:21:50.143Z,-5.50
2018-03-16T23:24:17.681Z,-5.40
2018-03-16T23:26:45.982Z,-5.40
2018-03-16T23:29:13.542Z,-5.60
2018-03-16T23:31:41.072Z,-5.40
2018-03-16T23:34:08.602Z,-5.40
2018-03-16T23:36:36.171Z,-5.70
2018-03-16T23:39:03.763Z,-5.80
2018-03-16T23:41:31.312Z,-5.70
2018-03-16T23:43:58.910Z,-5.90
2018-03-16T23:46:26.446Z,-5.90
2018-03-16T23:48:53.994Z,-5.80
2018-03-16T23:51:21.522Z,-5.90
2018-03-16T23:53:49.055Z,-5.60
2018-03-16T23:56:16.586Z,-5.70
2018-03-16T23:58:44.274Z,-5.90
